Time;durP1;ratioP1;P1;durP2;ratioP2;P2;SDS_P1;SDS_P2;PMS_P1;PMS_P2;Temp;Humidity;BMP_temperature;BMP_pressure;BME280_temperature;BME280_humidity;BME280_pressure;Samples;Min_cycle;Max_cycle;Signal;HPM_P1;HPM_P2
2022/11/14 00:02:22;;;;;;;61.65;29.90;;;;;;;;;;5090510;28;20416;-71
2022/11/14 00:04:49;;;;;;;58.00;29.10;;;;;;;;;;5112473;28;20392;-71
2022/11/14 00:07:15;;;;;;;54.90;29.02;;;;;;;;;;5109342;28;20693;-71
2022/11/14 00:09:41;;;;;;;55.40;29.50;;;;;;;;;;5111133;28;20807;-71
2022/11/14 00:12:08;;;;;;;53.08;27.00;;;;;;;;;;5092541;28;20416;-71
2022/11/14 00:14:35;;;;;;;53.65;27.95;;;;;;;;;;5112012;28;20396;-72
2022/11/14 00:17:01;;;;;;;51.85;28.15;;;;;;;;;;5110904;28;20418;-71
2022/11/14 00:19:27;;;;;;;55.33;28.63;;;;;;;;;;5110080;28;20983;-71
2022/11/14 00:21:53;;;;;;;56.78;27.35;;;;;;;;;;5091308;28;20423;-71
2022/11/14 00:24:20;;;;;;;52.97;28.07;;;;;;;;;;5110185;28;20500;-71
2022/11/14 00:26:46;;;;;;;48.90;26.17;;;;;;;;;;5111092;28;20415;-71
2022/11/14 00:29:12;;;;;;;52.78;28.15;;;;;;;;;;5109689;28;20412;-71
2022/11/14 00:31:38;;;;;;;50.67;27.23;;;;;;;;;;5099181;28;20509;-73
2022/11/14 00:34:05;;;;;;;46.83;27.93;;;;;;;;;;5111159;28;20420;-72
2022/11/14 00:36:31;;;;;;;49.63;26.02;;;;;;;;;;5110836;28;20420;-72
2022/11/14 00:38:57;;;;;;;48.35;26.83;;;;;;;;;;5105855;27;20503;-72
2022/11/14 00:41:23;;;;;;;46.90;25.30;;;;;;;;;;5091049;28;20425;-72
2022/11/14 00:43:49;;;;;;;49.60;28.88;;;;;;;;;;5103604;28;20416;-72
2022/11/14 00:46:16;;;;;;;46.15;26.40;;;6.50;99.90;;;;;;5111027;28;20768;-72
2022/11/14 00:48:42;;;;;;;44.13;25.25;;;;;;;;;;5128070;27;20916;-72
2022/11/14 00:51:08;;;;;;;48.30;26.43;;;;;;;;;;5127752;27;20463;-71
2022/11/14 00:53:34;;;;;;;44.33;26.98;;;;;;;;;;5109146;28;20455;-71
2022/11/14 00:56:00;;;;;;;45.35;26.55;;;;;;;;;;5110682;28;20555;-71
2022/11/14 00:58:26;;;;;;;47.33;27.23;;;;;;;;;;5111826;28;20404;-71
2022/11/14 01:00:53;;;;;;;46.13;26.13;;;;;;;;;;5107877;28;20420;-71
2022/11/14 01:03:19;;;;;;;45.05;26.65;;;;;;;;;;5093830;28;20423;-71
2022/11/14 01:05:47;;;;;;;45.53;26.27;;;6.50;99.90;;;;;;5092289;28;20424;-71
2022/11/14 01:08:14;;;;;;;44.92;26.92;;;6.50;99.90;;;;;;5109257;28;20420;-81
2022/11/14 01:10:41;;;;;;;45.33;26.38;;;;;;;;;;5111584;28;20404;-81
2022/11/14 01:13:07;;;;;;;44.83;27.60;;;;;;;;;;5110319;28;20557;-81
2022/11/14 01:15:33;;;;;;;45.70;30.05;;;;;;;;;;5107301;28;20434;-82
2022/11/14 01:17:59;;;;;;;46.30;27.50;;;;;;;;;;5111041;28;20895;-81
2022/11/14 01:20:26;;;;;;;46.33;27.85;;;;;;;;;;5126348;27;20424;-81
2022/11/14 01:22:52;;;;;;;46.28;27.83;;;;;;;;;;5110629;28;20416;-81
2022/11/14 01:25:18;;;;;;;43.15;26.58;;;;;;;;;;5111417;28;20400;-81
2022/11/14 01:27:44;;;;;;;47.97;28.63;;;;;;;;;;5090701;28;20752;-80
2022/11/14 01:30:10;;;;;;;45.42;27.08;;;;;;;;;;5107034;28;20929;-81
2022/11/14 01:32:36;;;;;;;46.90;29.55;;;;;;;;;;5093447;28;20785;-81
2022/11/14 01:35:02;;;;;;;48.72;28.30;;;;;;;;;;5110285;28;20420;-81
2022/11/14 01:37:28;;;;;;;45.70;29.65;;;;;;;;;;5110801;28;20400;-82
2022/11/14 01:39:54;;;;;;;48.75;29.42;;;;;;;;;;5142621;27;20415;-82
2022/11/14 01:42:20;;;;;;;49.05;30.58;;;;;;;;;;5104012;28;20923;-82
2022/11/14 01:44:51;;;;;;;49.05;32.72;;;6.60;99.90;;;;;;5142167;27;20416;-81
2022/11/14 01:47:21;;;;;;;50.13;32.67;;;6.60;99.90;;;;;;5110856;28;20408;-82
2022/11/14 01:49:50;;;;;;;51.55;29.88;;;;;;;;;;5107860;28;20452;-82
2022/11/14 01:52:21;;;;;;;50.63;31.98;;;6.80;99.90;;;;;;5143256;27;20412;-82
2022/11/14 01:54:56;;;;;;;59.30;35.10;;;6.60;99.90;;;;;;5125954;27;20427;-82
2022/11/14 01:57:25;;;;;;;54.10;32.72;;;;;;;;;;5110640;28;20412;-80
2022/11/14 01:59:53;;;;;;;53.83;35.57;;;;;;;;;;5125517;28;20427;-82
2022/11/14 02:02:21;;;;;;;55.25;33.10;;;;;;;;;;5124067;27;20424;-82
2022/11/14 02:04:50;;;;;;;56.97;36.30;;;;;;;;;;5139887;27;20442;-82
2022/11/14 02:07:17;;;;;;;59.90;35.83;;;;;;;;;;5126751;28;20420;-82
2022/11/14 02:09:44;;;;;;;58.25;36.25;;;;;;;;;;5109970;28;20643;-80
2022/11/14 02:12:12;;;;;;;59.87;35.23;;;;;;;;;;5144492;27;20985;-82
2022/11/14 02:14:40;;;;;;;60.35;33.92;;;6.60;99.90;;;;;;5091418;28;20507;-82
2022/11/14 02:17:06;;;;;;;61.30;36.22;;;;;;;;;;5092841;28;20412;-80
2022/11/14 02:19:49;;;;;;;60.53;34.22;;;6.70;99.90;;;;;;5109865;28;20432;-81
2022/11/14 02:22:16;;;;;;;63.00;35.63;;;;;;;;;;5109823;28;20465;-81
2022/11/14 02:24:42;;;;;;;61.47;34.37;;;;;;;;;;5109520;28;20416;-81
2022/11/14 02:27:09;;;;;;;64.18;35.53;;;;;;;;;;5107918;28;20465;-81
2022/11/14 02:29:36;;;;;;;74.85;40.30;;;;;;;;;;5107059;28;20443;-80
2022/11/14 02:32:02;;;;;;;67.37;37.13;;;;;;;;;;5109146;28;20415;-81
2022/11/14 02:34:28;;;;;;;67.05;38.45;;;;;;;;;;5107952;28;20445;-81
2022/11/14 02:36:55;;;;;;;72.90;41.80;;;;;;;;;;5109550;28;20920;-81
2022/11/14 02:39:21;;;;;;;73.35;42.08;;;;;;;;;;5092021;28;20496;-81
2022/11/14 02:41:47;;;;;;;75.50;41.38;;;;;;;;;;5108855;28;20473;-80
2022/11/14 02:44:13;;;;;;;73.40;40.90;;;;;;;;;;5124764;28;20416;-82
2022/11/14 02:46:39;;;;;;;74.05;43.42;;;;;;;;;;5108960;28;20997;-82
2022/11/14 02:49:05;;;;;;;76.45;42.45;;;;;;;;;;5114253;28;20392;-81
2022/11/14 02:51:31;;;;;;;76.32;42.65;;;;;;;;;;5100579;28;20421;-82
2022/11/14 02:53:57;;;;;;;77.38;41.95;;;;;;;;;;5141978;27;20432;-83
2022/11/14 02:56:23;;;;;;;75.72;42.30;;;;;;;;;;5112226;28;20435;-82
2022/11/14 02:58:49;;;;;;;78.45;45.22;;;;;;;;;;5113997;28;20412;-82
2022/11/14 03:01:15;;;;;;;75.68;44.22;;;;;;;;;;5112655;28;20772;-82
2022/11/14 03:03:42;;;;;;;76.80;42.90;;;;;;;;;;5111711;28;20400;-82
2022/11/14 03:06:08;;;;;;;82.47;43.97;;;;;;;;;;5112779;28;20877;-80
2022/11/14 03:08:34;;;;;;;77.05;43.22;;;;;;;;;;5129885;27;20444;-81
2022/11/14 03:11:05;;;;;;;80.55;44.15;;;6.30;99.90;;;;;;5079908;28;20906;-81
2022/11/14 03:13:31;;;;;;;81.65;42.88;;;;;;;;;;5112026;28;20971;-82
2022/11/14 03:15:57;;;;;;;76.07;43.37;;;;;;;;;;5110272;28;20521;-81
2022/11/14 03:18:23;;;;;;;80.45;43.92;;;;;;;;;;5111332;28;20423;-81
2022/11/14 03:20:49;;;;;;;77.57;42.88;;;;;;;;;;5130533;27;20435;-81
2022/11/14 03:23:15;;;;;;;86.85;44.95;;;;;;;;;;5128854;27;20448;-81
2022/11/14 03:25:41;;;;;;;80.72;51.13;;;;;;;;;;5111411;28;20911;-81
2022/11/14 03:28:07;;;;;;;84.00;42.22;;;;;;;;;;5109673;28;20420;-81
2022/11/14 03:30:33;;;;;;;75.40;45.42;;;;;;;;;;5112125;28;20420;-81
2022/11/14 03:32:59;;;;;;;74.32;45.80;;;;;;;;;;5112223;28;20455;-80
2022/11/14 03:35:25;;;;;;;77.63;43.80;;;;;;;;;;5110817;28;20431;-81
2022/11/14 03:37:51;;;;;;;80.85;44.05;;;;;;;;;;5111537;28;20416;-81
2022/11/14 03:40:17;;;;;;;79.88;45.90;;;;;;;;;;5105474;28;20459;-81
2022/11/14 03:42:43;;;;;;;79.10;45.08;;;;;;;;;;5111878;28;20416;-82
2022/11/14 03:45:11;;;;;;;77.60;42.47;;;;;;;;;;5110817;28;20428;-83
2022/11/14 03:47:37;;;;;;;79.07;45.92;;;;;;;;;;5095186;28;20419;-82
2022/11/14 03:50:03;;;;;;;80.63;44.35;;;;;;;;;;5095253;28;20416;-82
2022/11/14 03:52:29;;;;;;;77.65;43.25;;;;;;;;;;5111362;28;20416;-82
2022/11/14 03:54:55;;;;;;;82.70;44.30;;;;;;;;;;5111529;28;20428;-82
2022/11/14 03:57:21;;;;;;;78.60;44.78;;;;;;;;;;5111630;28;20491;-82
2022/11/14 03:59:47;;;;;;;77.40;42.35;;;;;;;;;;5111581;28;20423;-80
2022/11/14 04:02:13;;;;;;;76.43;43.20;;;;;;;;;;5127292;27;20431;-81
2022/11/14 04:04:39;;;;;;;81.90;43.50;;;;;;;;;;5110225;28;20463;-80
2022/11/14 04:07:05;;;;;;;78.67;43.87;;;;;;;;;;5112648;28;20396;-80
2022/11/14 04:09:31;;;;;;;72.03;42.55;;;;;;;;;;5110129;28;20985;-82
2022/11/14 04:11:57;;;;;;;73.32;44.15;;;;;;;;;;5126876;27;20741;-81
2022/11/14 04:14:23;;;;;;;76.35;40.97;;;;;;;;;;5089840;28;20762;-80
2022/11/14 04:16:50;;;;;;;74.40;42.55;;;;;;;;;;5107133;28;20467;-82
2022/11/14 04:19:16;;;;;;;73.57;42.40;;;;;;;;;;5143218;27;20447;-80
2022/11/14 04:21:42;;;;;;;76.75;43.20;;;;;;;;;;5110968;28;20424;-81
2022/11/14 04:24:08;;;;;;;69.80;40.28;;;;;;;;;;5110402;28;20479;-81
2022/11/14 04:26:34;;;;;;;75.80;41.57;;;;;;;;;;5108842;28;20415;-80
2022/11/14 04:29:00;;;;;;;76.25;42.20;;;;;;;;;;5110757;27;20401;-81
2022/11/14 04:31:26;;;;;;;76.50;42.20;;;;;;;;;;5111220;28;20409;-81
2022/11/14 04:33:52;;;;;;;74.85;44.33;;;;;;;;;;5111092;28;20412;-81
2022/11/14 04:36:18;;;;;;;77.30;42.17;;;;;;;;;;5111150;28;20448;-81
2022/11/14 04:38:44;;;;;;;78.03;41.75;;;;;;;;;;5112364;28;20400;-82
2022/11/14 04:41:10;;;;;;;76.65;43.42;;;;;;;;;;5111033;28;20585;-81
2022/11/14 04:43:36;;;;;;;128.43;46.85;;;;;;;;;;5112426;28;20445;-81
2022/11/14 04:46:02;;;;;;;74.53;40.43;;;;;;;;;;5114568;27;20499;-80
2022/11/14 04:48:28;;;;;;;72.55;42.53;;;;;;;;;;5143297;27;20431;-81
2022/11/14 04:50:54;;;;;;;73.85;43.08;;;;;;;;;;5146054;27;20408;-80
2022/11/14 04:53:20;;;;;;;71.33;40.93;;;;;;;;;;5094937;28;20769;-80
2022/11/14 04:55:46;;;;;;;75.70;42.22;;;;;;;;;;5111445;28;20930;-82
2022/11/14 04:58:12;;;;;;;72.63;41.65;;;;;;;;;;5112076;28;20892;-80
2022/11/14 05:00:38;;;;;;;73.00;42.60;;;;;;;;;;5110672;28;20424;-81
2022/11/14 05:03:04;;;;;;;76.75;41.35;;;;;;;;;;5111772;28;20443;-81
2022/11/14 05:05:31;;;;;;;73.30;42.08;;;6.30;99.90;;;;;;5093606;28;20420;-82
2022/11/14 05:07:58;;;;;;;71.78;40.30;;;;;;;;;;5109802;28;20450;-80
2022/11/14 05:10:24;;;;;;;70.05;41.83;;;;;;;;;;5110434;28;20452;-81
2022/11/14 05:12:53;;;;;;;73.63;41.60;;;6.30;99.90;;;;;;5110471;28;20415;-81
2022/11/14 05:15:19;;;;;;;72.72;41.75;;;;;;;;;;5145322;27;20423;-81
2022/11/14 05:17:45;;;;;;;71.33;41.67;;;;;;;;;;5108380;27;20445;-81
2022/11/14 05:20:11;;;;;;;73.45;44.88;;;;;;;;;;5091504;28;20431;-82
2022/11/14 05:22:37;;;;;;;68.35;41.03;;;;;;;;;;5134335;27;20408;-82
2022/11/14 05:25:04;;;;;;;72.25;41.33;;;6.40;99.90;;;;;;5110442;28;20487;-82
2022/11/14 05:27:30;;;;;;;69.80;42.72;;;;;;;;;;5128705;27;20400;-82
2022/11/14 05:29:57;;;;;;;73.90;44.07;;;;;;;;;;5110286;28;20416;-82
2022/11/14 05:32:23;;;;;;;73.40;40.97;;;;;;;;;;5100718;28;20414;-82
2022/11/14 05:34:49;;;;;;;74.28;41.35;;;;;;;;;;5099640;28;20458;-82
2022/11/14 05:37:15;;;;;;;73.22;41.30;;;;;;;;;;5110387;28;20458;-81
2022/11/14 05:39:41;;;;;;;73.47;43.10;;;;;;;;;;5125162;27;20439;-81
2022/11/14 05:42:07;;;;;;;72.80;41.23;;;;;;;;;;5110103;28;20444;-82
2022/11/14 05:44:33;;;;;;;69.97;44.05;;;;;;;;;;5110719;28;20404;-80
2022/11/14 05:46:59;;;;;;;71.72;42.60;;;;;;;;;;5125076;27;20923;-81
2022/11/14 05:49:25;;;;;;;72.57;42.70;;;;;;;;;;5109029;28;20472;-81
2022/11/14 05:51:51;;;;;;;71.85;43.15;;;;;;;;;;5093932;28;20537;-81
2022/11/14 05:54:17;;;;;;;71.82;42.75;;;;;;;;;;5109602;28;20442;-79
2022/11/14 05:56:43;;;;;;;70.50;41.67;;;;;;;;;;5109584;28;20420;-81
2022/11/14 05:59:09;;;;;;;74.13;41.00;;;;;;;;;;5108506;28;20477;-81
2022/11/14 06:01:35;;;;;;;75.20;41.53;;;;;;;;;;5087264;28;20529;-81
2022/11/14 06:04:04;;;;;;;69.22;41.47;;;6.30;99.90;;;;;;5104008;28;20420;-80
2022/11/14 06:06:30;;;;;;;73.43;41.58;;;;;;;;;;5109974;28;20435;-81
2022/11/14 06:08:57;;;;;;;75.97;42.88;;;;;;;;;;5107708;28;20457;-81
2022/11/14 06:11:23;;;;;;;78.75;42.50;;;;;;;;;;5142087;27;20463;-80
2022/11/14 06:13:49;;;;;;;74.10;42.47;;;;;;;;;;5110524;28;20500;-81
2022/11/14 06:16:16;;;;;;;82.50;47.60;;;6.10;99.90;;;;;;5107222;28;20992;-80
2022/11/14 06:18:42;;;;;;;72.68;43.53;;;;;;;;;;5111484;28;20408;-79
2022/11/14 06:21:13;;;;;;;94.63;47.97;;;;;;;;;;5104913;28;20459;-80
2022/11/14 06:23:39;;;;;;;81.97;43.65;;;;;;;;;;5108712;28;20416;-80
2022/11/14 06:26:06;;;;;;;119.60;48.28;;;;;;;;;;5108906;28;20418;-80
2022/11/14 06:28:32;;;;;;;122.60;48.92;;;;;;;;;;5143778;27;20814;-80
2022/11/14 06:30:59;;;;;;;99.57;45.63;;;;;;;;;;5125480;27;20431;-81
2022/11/14 06:33:26;;;;;;;76.60;46.08;;;5.90;99.90;;;;;;5110603;28;20455;-80
2022/11/14 06:35:57;;;;;;;75.50;43.85;;;;;;;;;;5113204;28;20400;-81
2022/11/14 06:38:23;;;;;;;87.25;45.45;;;;;;;;;;5106408;27;20460;-82
2022/11/14 06:40:49;;;;;;;96.22;46.13;;;;;;;;;;5103042;27;20428;-81
2022/11/14 06:43:15;;;;;;;78.15;48.10;;;;;;;;;;5111542;28;20423;-81
2022/11/14 06:45:41;;;;;;;75.80;45.17;;;;;;;;;;5112020;28;20487;-78
2022/11/14 06:48:07;;;;;;;83.22;46.03;;;;;;;;;;5096568;28;20741;-80
2022/11/14 06:50:33;;;;;;;114.25;48.78;;;;;;;;;;5113709;28;20871;-79
2022/11/14 06:52:59;;;;;;;82.40;43.40;;;;;;;;;;5107043;28;20417;-81
2022/11/14 06:55:25;;;;;;;76.85;42.60;;;;;;;;;;5112826;28;20473;-81
2022/11/14 06:57:54;;;;;;;79.60;42.53;;;6.00;99.90;;;;;;5109887;28;20918;-73
2022/11/14 07:00:21;;;;;;;145.23;47.90;;;;;;;;;;5094205;28;20884;-73
2022/11/14 07:02:48;;;;;;;81.28;44.10;;;;;;;;;;5094338;28;20415;-72
2022/11/14 07:05:14;;;;;;;82.03;43.15;;;;;;;;;;5109683;28;20615;-73
2022/11/14 07:07:40;;;;;;;85.72;44.40;;;;;;;;;;5119642;27;20416;-72
2022/11/14 07:10:06;;;;;;;79.65;42.40;;;;;;;;;;5108064;28;20448;-74
2022/11/14 07:12:32;;;;;;;79.00;42.65;;;;;;;;;;5143335;27;20419;-73
2022/11/14 07:14:58;;;;;;;78.13;41.90;;;;;;;;;;5127747;27;20422;-73
2022/11/14 07:17:24;;;;;;;83.85;47.85;;;;;;;;;;5107541;28;20416;-72
2022/11/14 07:19:50;;;;;;;77.07;42.97;;;;;;;;;;5108860;28;20446;-72
2022/11/14 07:22:16;;;;;;;77.95;41.83;;;;;;;;;;5109768;28;20943;-73
2022/11/14 07:24:43;;;;;;;85.68;45.15;;;;;;;;;;5105137;28;20416;-71
2022/11/14 07:27:11;;;;;;;88.05;44.08;;;;;;;;;;5100155;27;20417;-72
2022/11/14 07:29:37;;;;;;;88.68;45.72;;;;;;;;;;5125818;27;20764;-72
2022/11/14 07:32:04;;;;;;;84.05;44.45;;;;;;;;;;5112272;28;20409;-73
2022/11/14 07:34:30;;;;;;;86.32;44.88;;;;;;;;;;5106404;28;20452;-73
2022/11/14 07:36:56;;;;;;;86.50;45.00;;;;;;;;;;5111944;28;20420;-73
2022/11/14 07:39:22;;;;;;;89.22;46.80;;;;;;;;;;5109195;28;20499;-72
2022/11/14 07:41:48;;;;;;;88.28;45.03;;;;;;;;;;5094125;28;20423;-73
2022/11/14 07:44:14;;;;;;;81.47;43.47;;;;;;;;;;5092065;28;20422;-73
2022/11/14 07:46:40;;;;;;;82.70;44.05;;;;;;;;;;5113130;28;20396;-72
2022/11/14 07:49:06;;;;;;;86.32;44.17;;;;;;;;;;5112041;28;20511;-73
2022/11/14 07:51:32;;;;;;;84.57;44.30;;;;;;;;;;5111659;28;20414;-73
2022/11/14 07:53:58;;;;;;;82.60;43.90;;;;;;;;;;5103290;28;20549;-73
2022/11/14 07:56:25;;;;;;;82.07;45.35;;;;;;;;;;5088998;28;20427;-73
2022/11/14 07:58:51;;;;;;;90.88;43.83;;;;;;;;;;5093492;28;20428;-73
2022/11/14 08:01:17;;;;;;;101.13;45.33;;;;;;;;;;5112309;28;20428;-72
2022/11/14 08:03:43;;;;;;;87.63;44.40;;;;;;;;;;5126931;27;20424;-71
2022/11/14 08:06:13;;;;;;;87.93;47.95;;;5.80;99.90;;;;;;5107431;28;20465;-71
2022/11/14 08:08:39;;;;;;;91.35;46.33;;;;;;;;;;5096954;27;20420;-71
2022/11/14 08:11:05;;;;;;;90.93;45.60;;;;;;;;;;5107788;28;20499;-71
2022/11/14 08:13:32;;;;;;;145.27;50.00;;;;;;;;;;5129511;27;20423;-80
2022/11/14 08:15:59;;;;;;;83.85;43.20;;;;;;;;;;5094087;28;20422;-80
2022/11/14 08:18:25;;;;;;;86.93;45.90;;;;;;;;;;5110676;28;20481;-78
2022/11/14 08:20:51;;;;;;;80.30;42.42;;;;;;;;;;5107253;28;20427;-80
2022/11/14 08:23:17;;;;;;;82.85;43.92;;;;;;;;;;5125844;27;20434;-78
2022/11/14 08:25:43;;;;;;;81.57;43.20;;;;;;;;;;5118125;27;20416;-78
2022/11/14 08:28:09;;;;;;;85.72;43.58;;;;;;;;;;5110864;28;20408;-79
2022/11/14 08:30:35;;;;;;;83.00;44.60;;;;;;;;;;5109301;28;20423;-81
2022/11/14 08:33:02;;;;;;;102.95;42.85;;;;;;;;;;5110252;28;20920;-79
2022/11/14 08:35:29;;;;;;;82.88;43.72;;;;;;;;;;5109716;28;20823;-80
2022/11/14 08:37:55;;;;;;;78.03;41.38;;;;;;;;;;5093505;28;20473;-80
2022/11/14 08:40:21;;;;;;;78.25;42.78;;;;;;;;;;5092298;28;20424;-79
2022/11/14 08:42:47;;;;;;;73.13;41.40;;;;;;;;;;5111957;28;20400;-79
2022/11/14 08:45:13;;;;;;;74.95;40.65;;;;;;;;;;5092478;28;20420;-81
2022/11/14 08:47:39;;;;;;;76.55;40.80;;;;;;;;;;5122068;27;20446;-82
2022/11/14 08:50:05;;;;;;;94.00;41.88;;;;;;;;;;5109352;28;20416;-80
2022/11/14 08:52:31;;;;;;;78.57;40.38;;;;;;;;;;5142941;27;20416;-81
2022/11/14 08:54:57;;;;;;;74.40;40.38;;;;;;;;;;5112329;28;20407;-81
2022/11/14 08:57:23;;;;;;;76.47;41.47;;;;;;;;;;5121695;27;20420;-80
2022/11/14 08:59:49;;;;;;;75.13;42.95;;;;;;;;;;5101596;28;20495;-79
2022/11/14 09:02:15;;;;;;;137.57;46.70;;;;;;;;;;5125177;27;20420;-82
2022/11/14 09:04:41;;;;;;;78.38;41.25;;;;;;;;;;5108961;28;20755;-78
2022/11/14 09:07:07;;;;;;;79.82;41.10;;;;;;;;;;5091037;28;20416;-78
2022/11/14 09:09:33;;;;;;;76.80;41.05;;;;;;;;;;5127002;27;20491;-81
2022/11/14 09:11:59;;;;;;;70.55;40.67;;;;;;;;;;5111879;28;20469;-81
2022/11/14 09:14:25;;;;;;;71.97;39.30;;;;;;;;;;5093037;28;20492;-81
2022/11/14 09:16:51;;;;;;;73.50;39.53;;;;;;;;;;5107066;28;20462;-81
2022/11/14 09:19:18;;;;;;;64.22;37.10;;;;;;;;;;5106934;28;20932;-80
2022/11/14 09:21:44;;;;;;;63.85;37.00;;;;;;;;;;5124344;27;20448;-80
2022/11/14 09:24:10;;;;;;;61.95;36.53;;;;;;;;;;5110913;28;20885;-80
2022/11/14 09:26:36;;;;;;;61.10;35.67;;;;;;;;;;5111120;28;20483;-80
2022/11/14 09:29:04;;;;;;;60.50;38.47;;;;;;;;;;5092617;28;20424;-80
2022/11/14 09:31:30;;;;;;;61.75;36.70;;;;;;;;;;5125604;27;20424;-80
2022/11/14 09:33:56;;;;;;;61.33;35.88;;;;;;;;;;5110215;28;20940;-81
2022/11/14 09:36:22;;;;;;;62.42;38.15;;;;;;;;;;5092769;28;20469;-80
2022/11/14 09:38:50;;;;;;;60.28;36.38;;;6.70;99.90;;;;;;5144347;27;20920;-81
2022/11/14 09:41:23;;;;;;;59.53;38.15;;;;;;;;;;5106249;28;20949;-80
2022/11/14 09:44:05;;;;;;;59.73;36.87;;;;;;;;;;5107832;28;20423;-80
2022/11/14 09:46:38;;;;;;;63.53;37.90;;;;;;;;;;5108561;28;20419;-80
2022/11/14 09:49:22;;;;;;;57.65;36.85;;;6.50;99.90;;;;;;5104728;28;20412;-80
2022/11/14 09:51:52;;;;;;;60.13;36.25;;;;;;;;;;5108988;28;20764;-80
2022/11/14 09:54:24;;;;;;;57.50;35.65;;;6.70;99.90;;;;;;5108351;28;20408;-80
2022/11/14 09:56:51;;;;;;;55.25;36.97;;;;;;;;;;5144793;27;20400;-80
2022/11/14 09:59:17;;;;;;;57.08;35.90;;;;;;;;;;5104511;28;20419;-79
2022/11/14 10:02:17;;;;;;;59.63;35.83;;;7.30;99.90;;;;;;5091665;28;20531;-81
2022/11/14 10:04:43;;;;;;;58.15;34.67;;;;;;;;;;5108654;28;20424;-81
2022/11/14 10:07:16;;;;;;;52.90;34.10;;;7.10;99.90;;;;;;5106636;28;20439;-80
2022/11/14 10:09:42;;;;;;;53.85;34.25;;;;;;;;;;5109031;28;20471;-80
2022/11/14 10:12:17;;;;;;;51.90;33.97;;;;;;;;;;5107305;28;20423;-80
2022/11/14 10:14:52;;;;;;;54.43;33.93;;;;;;;;;;5086810;28;20456;-82
2022/11/14 10:18:16;;;;;;;50.47;34.40;;;7.50;99.90;;;;;;5138403;27;20424;-83
2022/11/14 10:20:54;;;;;;;47.30;33.30;;;7.50;99.90;;;;;;5067747;28;20490;-81
2022/11/14 10:23:39;;;;;;;50.13;31.90;;;;;;;;;;5110200;28;20495;-82
2022/11/14 10:26:31;;;;;;;50.22;32.22;;;7.80;99.90;;;;;;5105506;28;20991;-81
2022/11/14 10:29:16;;;;;;;51.33;32.27;;;;;;;;;;5074180;28;20406;-80
2022/11/14 10:31:52;;;;;;;48.50;30.83;;;;;;;;;;5081458;28;20426;-73
2022/11/14 10:34:33;;;;;;;45.50;29.75;;;;;;;;;;5106013;28;20416;-73
2022/11/14 10:37:12;;;;;;;47.80;30.70;;;8.10;99.90;;;;;;5110186;28;20946;-73
2022/11/14 10:39:47;;;;;;;47.90;31.83;;;;;;;;;;5089770;28;20420;-73
2022/11/14 10:42:26;;;;;;;47.25;30.35;;;;;;;;;;5104533;28;20427;-74
2022/11/14 10:45:05;;;;;;;44.08;30.05;;;;;;;;;;5107418;28;20487;-73
2022/11/14 10:47:36;;;;;;;47.37;30.97;;;;;;;;;;5107810;28;20419;-74
2022/11/14 10:50:20;;;;;;;47.08;30.60;;;8.00;99.90;;;;;;5091022;28;20412;-74
2022/11/14 10:52:47;;;;;;;46.53;32.30;;;;;;;;;;5126047;28;20492;-73
2022/11/14 10:55:17;;;;;;;46.75;29.35;;;;;;;;;;5106824;28;20423;-74
2022/11/14 10:57:46;;;;;;;47.67;31.03;;;;;;;;;;5122623;28;20895;-74
2022/11/14 11:00:14;;;;;;;45.25;32.42;;;;;;;;;;5108762;28;20469;-73
2022/11/14 11:02:52;;;;;;;44.88;30.05;;;8.10;99.90;;;;;;5104376;28;20416;-73
2022/11/14 11:05:20;;;;;;;45.10;32.27;;;;;;;;;;5127299;28;20403;-73
2022/11/14 11:13:34;;;;;;;44.50;30.65;;;8.00;99.90;;;;;;5113515;28;20404;-74
2022/11/14 11:16:01;;;;;;;54.45;30.55;;;;;;;;;;5125423;27;20473;-74
2022/11/14 11:18:28;;;;;;;40.40;27.55;;;;;;;;;;5128502;27;20416;-74
2022/11/14 11:21:03;;;;;;;43.35;28.27;;;;;;;;;;5092955;28;20439;-74
2022/11/14 11:23:29;;;;;;;42.67;31.20;;;;;;;;;;5088141;28;20473;-73
2022/11/14 11:26:04;;;;;;;42.42;28.38;;;;;;;;;;5110962;28;20422;-75
2022/11/14 11:28:32;;;;;;;41.92;28.27;;;;;;;;;;5128987;27;20907;-73
2022/11/14 11:31:00;;;;;;;39.30;27.73;;;;;;;;;;5094090;28;20428;-73
2022/11/14 11:33:33;;;;;;;39.13;27.58;;;8.50;99.90;;;;;;5129554;27;20403;-74
2022/11/14 11:36:16;;;;;;;38.53;26.83;;;8.30;99.90;;;;;;5092556;28;20404;-74
2022/11/14 11:38:43;;;;;;;37.35;26.25;;;;;;;;;;5130390;27;20893;-73
2022/11/14 11:41:28;;;;;;;38.17;26.80;;;;;;;;;;5107569;28;20470;-73
2022/11/14 11:43:56;;;;;;;42.88;30.05;;;;;;;;;;5093917;28;20401;-74
2022/11/14 11:46:28;;;;;;;41.77;28.73;;;;;;;;;;5138448;27;20504;-74
2022/11/14 11:49:02;;;;;;;40.47;29.30;;;;;;;;;;5126669;27;20481;-73
2022/11/14 11:51:30;;;;;;;39.58;28.15;;;;;;;;;;5124820;27;20482;-73
2022/11/14 11:54:06;;;;;;;41.28;28.88;;;;;;;;;;5084084;28;20420;-73
2022/11/14 11:56:33;;;;;;;38.22;27.52;;;;;;;;;;5091252;28;20519;-73
2022/11/14 11:59:28;;;;;;;39.47;27.50;;;9.00;99.90;;;;;;5078083;28;20408;-73
2022/11/14 12:01:54;;;;;;;40.53;28.55;;;;;;;;;;5100088;28;20903;-74
2022/11/14 12:04:21;;;;;;;36.45;27.23;;;;;;;;;;5109472;28;20424;-73
2022/11/14 12:07:07;;;;;;;38.10;28.00;;;;;;;;;;5111791;28;21189;-74
2022/11/14 12:09:38;;;;;;;37.88;26.20;;;8.80;99.90;;;;;;5103122;28;20423;-74
2022/11/14 12:12:25;;;;;;;38.70;26.70;;;;;;;;;;5109442;28;20477;-74
2022/11/14 12:15:03;;;;;;;36.03;26.98;;;;;;;;;;5114140;27;20416;-74
2022/11/14 12:17:41;;;;;;;34.50;25.83;;;;;;;;;;5107658;28;20909;-74
2022/11/14 12:20:08;;;;;;;36.63;26.17;;;;;;;;;;5122725;27;20424;-74
2022/11/14 12:22:46;;;;;;;36.55;25.95;;;;;;;;;;5110180;27;20426;-74
2022/11/14 12:25:18;;;;;;;35.85;25.23;;;;;;;;;;5095509;28;20404;-74
2022/11/14 12:27:52;;;;;;;33.97;25.52;;;;;;;;;;5093828;28;20420;-74
2022/11/14 12:30:22;;;;;;;34.90;25.50;;;;;;;;;;5110783;28;20961;-74
2022/11/14 12:32:48;;;;;;;34.00;26.90;;;;;;;;;;5110962;28;20507;-82
2022/11/14 12:35:25;;;;;;;35.15;26.00;;;8.80;99.90;;;;;;5103787;28;20467;-82
2022/11/14 12:37:53;;;;;;;36.10;25.52;;;8.70;99.90;;;;;;5110843;28;20444;-81
2022/11/14 12:40:25;;;;;;;36.15;25.10;;;;;;;;;;5145178;27;20455;-82
2022/11/14 12:42:51;;;;;;;37.08;25.67;;;;;;;;;;5100908;28;20428;-83
2022/11/14 12:45:36;;;;;;;35.10;25.02;;;;;;;;;;5108529;28;20416;-83
2022/11/14 12:48:20;;;;;;;34.63;24.98;;;;;;;;;;5101851;28;20756;-83
2022/11/14 12:50:47;;;;;;;36.37;25.17;;;;;;;;;;5103870;28;20806;-82
2022/11/14 12:53:38;;;;;;;35.90;24.63;;;;;;;;;;5105050;28;20468;-81
2022/11/14 12:56:23;;;;;;;36.35;25.48;;;;;;;;;;5125188;27;20463;-82
2022/11/14 12:59:03;;;;;;;35.83;26.37;;;8.90;99.90;;;;;;5120172;27;20425;-83
2022/11/14 13:01:29;;;;;;;34.60;26.42;;;;;;;;;;5108424;28;20427;-83
2022/11/14 13:04:32;;;;;;;35.40;25.33;;;8.80;99.90;;;;;;5109783;28;20507;-83
2022/11/14 13:07:17;;;;;;;36.10;24.80;;;;;;;;;;5130673;27;20417;-82
2022/11/14 13:10:02;;;;;;;36.25;26.20;;;;;;;;;;5105088;28;20742;-83
2022/11/14 13:24:10;;;;;;;39.70;25.55;;;;;;;;;;5109999;28;20424;-83
2022/11/14 13:26:38;;;;;;;37.70;25.25;;;;;;;;;;5109522;28;20412;-81
2022/11/14 13:29:04;;;;;;;37.80;25.75;;;;;;;;;;5108844;28;20942;-83
2022/11/14 13:31:36;;;;;;;35.13;25.35;;;;;;;;;;5092568;28;20434;-82
2022/11/14 13:34:42;;;;;;;34.40;24.50;;;8.90;99.90;;;;;;5094305;28;20421;-82
2022/11/14 13:37:11;;;;;;;34.55;23.95;;;;;;;;;;5093941;28;20443;-82
2022/11/14 13:40:03;;;;;;;37.55;25.20;;;8.90;99.90;;;;;;5092397;28;20483;-82
2022/11/14 13:42:49;;;;;;;33.50;24.42;;;;;;;;;;5139560;27;20420;-82
2022/11/14 13:45:15;;;;;;;34.85;24.85;;;;;;;;;;5123448;27;20429;-83
2022/11/14 13:47:48;;;;;;;32.83;24.55;;;;;;;;;;5108371;28;20491;-83
2022/11/14 13:50:17;;;;;;;32.92;23.90;;;;;;;;;;5145350;27;20465;-84
2022/11/14 13:52:44;;;;;;;33.13;23.20;;;;;;;;;;5090375;28;20416;-83
2022/11/14 13:55:27;;;;;;;32.27;22.23;;;;;;;;;;5140361;27;20413;-83
2022/11/14 13:57:53;;;;;;;35.40;22.88;;;;;;;;;;5093092;28;20982;-83
2022/11/14 14:00:20;;;;;;;32.47;23.83;;;;;;;;;;5125773;27;20431;-83
2022/11/14 14:02:56;;;;;;;32.63;23.33;;;;;;;;;;5124956;27;20507;-82
2022/11/14 14:05:34;;;;;;;33.40;23.50;;;;;;;;;;5136935;27;20426;-82
2022/11/14 14:08:06;;;;;;;31.65;22.48;;;;;;;;;;5108237;28;20504;-83
2022/11/14 14:10:42;;;;;;;32.40;23.05;;;;;;;;;;5090353;28;20417;-83
2022/11/14 14:13:08;;;;;;;31.75;23.45;;;;;;;;;;5092700;28;20412;-84
2022/11/14 14:15:41;;;;;;;34.10;23.45;;;;;;;;;;5108585;28;20419;-83
2022/11/14 14:18:22;;;;;;;34.20;23.63;;;;;;;;;;5110649;28;20969;-82
2022/11/14 14:21:13;;;;;;;33.45;23.45;;;9.00;99.90;;;;;;5091604;28;20420;-82
2022/11/14 14:23:48;;;;;;;32.50;22.75;;;;;;;;;;5110065;28;20413;-83
2022/11/14 14:26:38;;;;;;;33.03;23.58;;;;;;;;;;5104463;28;20426;-83
2022/11/14 14:29:04;;;;;;;32.92;22.77;;;;;;;;;;5106148;28;20420;-82
2022/11/14 14:31:38;;;;;;;31.65;22.48;;;9.00;99.90;;;;;;5073547;28;20430;-82
2022/11/14 14:34:20;;;;;;;32.63;22.27;;;;;;;;;;5110271;28;20403;-83